sensor_id;sensor_type;location;lat;lon;timestamp;temperature;humidity
22290;DHT22;11313;50.116;8.424;2024-02-14T00:00:46;26.00;40.30
22290;DHT22;11313;50.116;8.424;2024-02-14T00:03:11;26.00;40.30
22290;DHT22;11313;50.116;8.424;2024-02-14T00:05:37;26.00;40.20
22290;DHT22;11313;50.116;8.424;2024-02-14T00:08:03;26.00;40.20
22290;DHT22;11313;50.116;8.424;2024-02-14T00:10:28;26.00;40.20
22290;DHT22;11313;50.116;8.424;2024-02-14T00:12:54;25.90;40.90
22290;DHT22;11313;50.116;8.424;2024-02-14T00:15:20;25.90;40.30
22290;DHT22;11313;50.116;8.424;2024-02-14T00:17:45;25.80;40.30
22290;DHT22;11313;50.116;8.424;2024-02-14T00:20:11;25.90;40.30
22290;DHT22;11313;50.116;8.424;2024-02-14T00:22:38;25.90;40.30
22290;DHT22;11313;50.116;8.424;2024-02-14T00:25:03;25.90;40.30
22290;DHT22;11313;50.116;8.424;2024-02-14T00:27:29;25.80;40.50
22290;DHT22;11313;50.116;8.424;2024-02-14T00:29:55;25.80;40.40
22290;DHT22;11313;50.116;8.424;2024-02-14T00:32:21;25.80;40.40
22290;DHT22;11313;50.116;8.424;2024-02-14T00:34:47;25.90;40.40
22290;DHT22;11313;50.116;8.424;2024-02-14T00:37:13;25.80;40.40
22290;DHT22;11313;50.116;8.424;2024-02-14T00:39:39;25.80;40.30
22290;DHT22;11313;50.116;8.424;2024-02-14T00:42:04;25.80;40.40
22290;DHT22;11313;50.116;8.424;2024-02-14T00:44:30;25.80;40.50
22290;DHT22;11313;50.116;8.424;2024-02-14T00:46:58;25.70;40.50
22290;DHT22;11313;50.116;8.424;2024-02-14T00:49:28;25.70;40.50
22290;DHT22;11313;50.116;8.424;2024-02-14T00:51:54;25.80;40.50
22290;DHT22;11313;50.116;8.424;2024-02-14T00:54:20;25.70;40.50
22290;DHT22;11313;50.116;8.424;2024-02-14T00:56:45;25.70;40.60
22290;DHT22;11313;50.116;8.424;2024-02-14T00:59:10;25.70;40.50
22290;DHT22;11313;50.116;8.424;2024-02-14T01:01:36;25.70;40.50
22290;DHT22;11313;50.116;8.424;2024-02-14T01:04:01;25.80;40.60
22290;DHT22;11313;50.116;8.424;2024-02-14T01:06:30;25.70;40.50
22290;DHT22;11313;50.116;8.424;2024-02-14T01:08:56;25.70;40.50
22290;DHT22;11313;50.116;8.424;2024-02-14T01:11:21;25.70;40.60
22290;DHT22;11313;50.116;8.424;2024-02-14T01:13:47;25.70;40.60
22290;DHT22;11313;50.116;8.424;2024-02-14T01:16:12;25.70;40.60
22290;DHT22;11313;50.116;8.424;2024-02-14T01:18:38;25.70;40.60
22290;DHT22;11313;50.116;8.424;2024-02-14T01:21:03;25.70;40.50
22290;DHT22;11313;50.116;8.424;2024-02-14T01:23:29;25.70;40.50
22290;DHT22;11313;50.116;8.424;2024-02-14T01:25:54;25.80;40.60
22290;DHT22;11313;50.116;8.424;2024-02-14T01:28:21;25.80;40.50
22290;DHT22;11313;50.116;8.424;2024-02-14T01:30:46;25.80;40.40
22290;DHT22;11313;50.116;8.424;2024-02-14T01:33:12;25.80;40.40
22290;DHT22;11313;50.116;8.424;2024-02-14T01:35:37;25.90;40.40
22290;DHT22;11313;50.116;8.424;2024-02-14T01:38:03;25.90;40.40
22290;DHT22;11313;50.116;8.424;2024-02-14T01:40:29;25.80;40.40
22290;DHT22;11313;50.116;8.424;2024-02-14T01:42:54;25.90;40.40
22290;DHT22;11313;50.116;8.424;2024-02-14T01:45:21;25.80;40.50
22290;DHT22;11313;50.116;8.424;2024-02-14T01:47:47;25.80;40.50
22290;DHT22;11313;50.116;8.424;2024-02-14T01:50:12;25.80;40.40
22290;DHT22;11313;50.116;8.424;2024-02-14T01:52:38;25.80;40.40
22290;DHT22;11313;50.116;8.424;2024-02-14T01:55:05;25.90;40.40
22290;DHT22;11313;50.116;8.424;2024-02-14T01:57:33;25.90;40.30
22290;DHT22;11313;50.116;8.424;2024-02-14T02:00:00;25.90;40.30
22290;DHT22;11313;50.116;8.424;2024-02-14T02:02:29;25.90;40.30
22290;DHT22;11313;50.116;8.424;2024-02-14T02:04:55;26.00;40.30
22290;DHT22;11313;50.116;8.424;2024-02-14T02:07:20;26.00;40.30
22290;DHT22;11313;50.116;8.424;2024-02-14T02:09:46;26.00;40.20
22290;DHT22;11313;50.116;8.424;2024-02-14T02:12:12;26.00;40.30
22290;DHT22;11313;50.116;8.424;2024-02-14T02:14:37;26.00;40.10
22290;DHT22;11313;50.116;8.424;2024-02-14T02:17:03;26.00;40.20
22290;DHT22;11313;50.116;8.424;2024-02-14T02:19:33;26.00;40.20
22290;DHT22;11313;50.116;8.424;2024-02-14T02:21:59;26.00;40.20
22290;DHT22;11313;50.116;8.424;2024-02-14T02:24:25;26.00;40.10
22290;DHT22;11313;50.116;8.424;2024-02-14T02:26:50;26.00;40.20
22290;DHT22;11313;50.116;8.424;2024-02-14T02:29:15;26.00;40.20
22290;DHT22;11313;50.116;8.424;2024-02-14T02:31:41;26.00;40.20
22290;DHT22;11313;50.116;8.424;2024-02-14T02:34:07;26.00;40.20
22290;DHT22;11313;50.116;8.424;2024-02-14T02:36:36;26.00;40.20
22290;DHT22;11313;50.116;8.424;2024-02-14T02:39:03;26.00;40.20
22290;DHT22;11313;50.116;8.424;2024-02-14T02:41:30;25.90;40.30
22290;DHT22;11313;50.116;8.424;2024-02-14T02:43:57;25.90;40.40
22290;DHT22;11313;50.116;8.424;2024-02-14T02:46:22;25.90;40.30
22290;DHT22;11313;50.116;8.424;2024-02-14T02:48:48;25.90;40.30
22290;DHT22;11313;50.116;8.424;2024-02-14T02:51:16;25.90;40.30
22290;DHT22;11313;50.116;8.424;2024-02-14T02:53:42;25.90;40.30
22290;DHT22;11313;50.116;8.424;2024-02-14T02:56:08;25.90;40.30
22290;DHT22;11313;50.116;8.424;2024-02-14T02:58:33;25.80;41.00
22290;DHT22;11313;50.116;8.424;2024-02-14T03:00:59;25.80;40.40
22290;DHT22;11313;50.116;8.424;2024-02-14T03:03:25;25.80;40.40
22290;DHT22;11313;50.116;8.424;2024-02-14T03:05:52;25.80;40.30
22290;DHT22;11313;50.116;8.424;2024-02-14T03:08:19;25.80;40.40
22290;DHT22;11313;50.116;8.424;2024-02-14T03:10:44;25.90;40.30
22290;DHT22;11313;50.116;8.424;2024-02-14T03:13:11;25.80;40.30
22290;DHT22;11313;50.116;8.424;2024-02-14T03:15:39;25.80;40.30
22290;DHT22;11313;50.116;8.424;2024-02-14T03:18:05;25.80;40.30
22290;DHT22;11313;50.116;8.424;2024-02-14T03:20:33;25.90;40.30
22290;DHT22;11313;50.116;8.424;2024-02-14T03:23:00;25.80;40.30
22290;DHT22;11313;50.116;8.424;2024-02-14T03:25:25;25.80;40.30
22290;DHT22;11313;50.116;8.424;2024-02-14T03:27:51;25.80;40.30
22290;DHT22;11313;50.116;8.424;2024-02-14T03:30:19;25.80;40.30
22290;DHT22;11313;50.116;8.424;2024-02-14T03:32:48;25.80;40.30
22290;DHT22;11313;50.116;8.424;2024-02-14T03:35:14;25.80;40.30
22290;DHT22;11313;50.116;8.424;2024-02-14T03:37:45;25.80;40.30
22290;DHT22;11313;50.116;8.424;2024-02-14T03:40:13;25.90;40.30
22290;DHT22;11313;50.116;8.424;2024-02-14T03:42:38;25.90;40.30
22290;DHT22;11313;50.116;8.424;2024-02-14T03:45:08;25.90;40.20
22290;DHT22;11313;50.116;8.424;2024-02-14T03:47:33;25.90;40.20
22290;DHT22;11313;50.116;8.424;2024-02-14T03:49:59;25.90;40.20
22290;DHT22;11313;50.116;8.424;2024-02-14T03:52:25;26.00;40.20
22290;DHT22;11313;50.116;8.424;2024-02-14T03:54:51;25.90;40.20
22290;DHT22;11313;50.116;8.424;2024-02-14T03:57:17;26.00;40.10
22290;DHT22;11313;50.116;8.424;2024-02-14T03:59:43;26.00;40.10
22290;DHT22;11313;50.116;8.424;2024-02-14T04:02:10;26.00;40.10
22290;DHT22;11313;50.116;8.424;2024-02-14T04:04:37;26.00;40.10
22290;DHT22;11313;50.116;8.424;2024-02-14T04:07:03;26.00;40.10
22290;DHT22;11313;50.116;8.424;2024-02-14T04:09:28;26.00;40.10
22290;DHT22;11313;50.116;8.424;2024-02-14T04:11:54;26.00;40.00
22290;DHT22;11313;50.116;8.424;2024-02-14T04:14:20;26.00;40.00
22290;DHT22;11313;50.116;8.424;2024-02-14T04:16:46;26.00;40.00
22290;DHT22;11313;50.116;8.424;2024-02-14T04:19:11;26.00;40.00
22290;DHT22;11313;50.116;8.424;2024-02-14T04:21:38;26.00;40.00
22290;DHT22;11313;50.116;8.424;2024-02-14T04:24:04;26.00;40.70
22290;DHT22;11313;50.116;8.424;2024-02-14T04:26:29;26.00;40.10
22290;DHT22;11313;50.116;8.424;2024-02-14T04:28:55;26.00;40.00
22290;DHT22;11313;50.116;8.424;2024-02-14T04:31:20;26.00;40.00
22290;DHT22;11313;50.116;8.424;2024-02-14T04:33:46;26.00;40.00
22290;DHT22;11313;50.116;8.424;2024-02-14T04:36:18;26.00;40.00
22290;DHT22;11313;50.116;8.424;2024-02-14T04:38:44;26.00;40.10
22290;DHT22;11313;50.116;8.424;2024-02-14T04:41:10;26.00;40.00
22290;DHT22;11313;50.116;8.424;2024-02-14T04:43:36;26.00;40.00
22290;DHT22;11313;50.116;8.424;2024-02-14T04:46:01;26.00;40.10
22290;DHT22;11313;50.116;8.424;2024-02-14T04:48:27;25.90;40.10
22290;DHT22;11313;50.116;8.424;2024-02-14T04:50:53;26.00;40.10
22290;DHT22;11313;50.116;8.424;2024-02-14T04:53:18;25.90;40.10
22290;DHT22;11313;50.116;8.424;2024-02-14T04:55:44;25.90;40.10
22290;DHT22;11313;50.116;8.424;2024-02-14T04:58:10;25.90;40.10
22290;DHT22;11313;50.116;8.424;2024-02-14T05:00:36;25.90;40.20
22290;DHT22;11313;50.116;8.424;2024-02-14T05:03:01;25.90;40.20
22290;DHT22;11313;50.116;8.424;2024-02-14T05:05:27;25.90;40.20
22290;DHT22;11313;50.116;8.424;2024-02-14T05:07:53;25.90;40.20
22290;DHT22;11313;50.116;8.424;2024-02-14T05:10:19;25.80;40.10
22290;DHT22;11313;50.116;8.424;2024-02-14T05:12:44;25.80;40.20
22290;DHT22;11313;50.116;8.424;2024-02-14T05:15:10;25.80;40.20
22290;DHT22;11313;50.116;8.424;2024-02-14T05:17:37;25.80;40.20
22290;DHT22;11313;50.116;8.424;2024-02-14T05:20:04;25.80;40.20
22290;DHT22;11313;50.116;8.424;2024-02-14T05:22:35;25.90;40.20
22290;DHT22;11313;50.116;8.424;2024-02-14T05:25:01;25.90;40.20
22290;DHT22;11313;50.116;8.424;2024-02-14T05:27:26;25.90;40.50
22290;DHT22;11313;50.116;8.424;2024-02-14T05:29:52;25.90;40.40
22290;DHT22;11313;50.116;8.424;2024-02-14T05:32:17;25.90;40.30
22290;DHT22;11313;50.116;8.424;2024-02-14T05:34:43;25.90;40.30
22290;DHT22;11313;50.116;8.424;2024-02-14T05:37:08;25.80;40.30
22290;DHT22;11313;50.116;8.424;2024-02-14T05:39:34;25.80;40.30
22290;DHT22;11313;50.116;8.424;2024-02-14T05:41:59;25.80;40.30
22290;DHT22;11313;50.116;8.424;2024-02-14T05:44:25;25.80;40.30
22290;DHT22;11313;50.116;8.424;2024-02-14T05:46:52;25.80;40.30
22290;DHT22;11313;50.116;8.424;2024-02-14T05:49:18;25.80;40.40
22290;DHT22;11313;50.116;8.424;2024-02-14T05:51:43;25.80;40.40
22290;DHT22;11313;50.116;8.424;2024-02-14T05:54:09;25.80;40.30
22290;DHT22;11313;50.116;8.424;2024-02-14T05:56:34;25.80;40.20
22290;DHT22;11313;50.116;8.424;2024-02-14T05:59:00;25.80;40.20
22290;DHT22;11313;50.116;8.424;2024-02-14T06:01:25;25.90;40.30
22290;DHT22;11313;50.116;8.424;2024-02-14T06:03:51;25.90;40.20
22290;DHT22;11313;50.116;8.424;2024-02-14T06:06:16;25.90;40.20
22290;DHT22;11313;50.116;8.424;2024-02-14T06:08:42;25.90;40.30
22290;DHT22;11313;50.116;8.424;2024-02-14T06:11:07;25.90;40.30
22290;DHT22;11313;50.116;8.424;2024-02-14T06:13:34;25.90;40.40
22290;DHT22;11313;50.116;8.424;2024-02-14T06:16:01;25.90;40.40
22290;DHT22;11313;50.116;8.424;2024-02-14T06:18:26;26.00;40.50
22290;DHT22;11313;50.116;8.424;2024-02-14T06:20:52;25.90;40.50
22290;DHT22;11313;50.116;8.424;2024-02-14T06:23:17;25.90;41.10
22290;DHT22;11313;50.116;8.424;2024-02-14T06:25:43;26.00;40.90
22290;DHT22;11313;50.116;8.424;2024-02-14T06:28:08;26.00;40.90
22290;DHT22;11313;50.116;8.424;2024-02-14T06:30:35;26.00;41.00
22290;DHT22;11313;50.116;8.424;2024-02-14T06:33:00;26.00;41.00
22290;DHT22;11313;50.116;8.424;2024-02-14T06:35:27;26.00;40.90
22290;DHT22;11313;50.116;8.424;2024-02-14T06:37:54;26.00;41.00
22290;DHT22;11313;50.116;8.424;2024-02-14T06:40:19;26.00;41.00
22290;DHT22;11313;50.116;8.424;2024-02-14T06:42:45;26.00;41.00
22290;DHT22;11313;50.116;8.424;2024-02-14T06:45:11;26.00;41.00
22290;DHT22;11313;50.116;8.424;2024-02-14T06:47:36;26.10;41.00
22290;DHT22;11313;50.116;8.424;2024-02-14T06:50:02;26.10;41.00
22290;DHT22;11313;50.116;8.424;2024-02-14T06:52:27;26.10;41.00
22290;DHT22;11313;50.116;8.424;2024-02-14T06:54:54;26.00;40.90
22290;DHT22;11313;50.116;8.424;2024-02-14T06:57:19;26.00;40.80
22290;DHT22;11313;50.116;8.424;2024-02-14T06:59:44;26.00;40.80
22290;DHT22;11313;50.116;8.424;2024-02-14T07:02:10;26.00;40.80
22290;DHT22;11313;50.116;8.424;2024-02-14T07:04:35;26.00;41.00
22290;DHT22;11313;50.116;8.424;2024-02-14T07:07:02;26.10;41.50
22290;DHT22;11313;50.116;8.424;2024-02-14T07:09:28;26.10;42.70
22290;DHT22;11313;50.116;8.424;2024-02-14T07:11:54;26.10;43.10
22290;DHT22;11313;50.116;8.424;2024-02-14T07:14:22;26.00;43.10
22290;DHT22;11313;50.116;8.424;2024-02-14T07:16:47;26.00;43.10
22290;DHT22;11313;50.116;8.424;2024-02-14T07:19:13;26.10;43.40
22290;DHT22;11313;50.116;8.424;2024-02-14T07:21:38;26.10;43.40
22290;DHT22;11313;50.116;8.424;2024-02-14T07:24:05;26.10;43.40
22290;DHT22;11313;50.116;8.424;2024-02-14T07:26:30;26.10;43.30
22290;DHT22;11313;50.116;8.424;2024-02-14T07:28:56;26.10;43.20
22290;DHT22;11313;50.116;8.424;2024-02-14T07:31:22;26.00;43.00
22290;DHT22;11313;50.116;8.424;2024-02-14T07:33:48;26.00;43.00
22290;DHT22;11313;50.116;8.424;2024-02-14T07:36:14;26.00;43.00
22290;DHT22;11313;50.116;8.424;2024-02-14T07:38:40;26.00;43.00
22290;DHT22;11313;50.116;8.424;2024-02-14T07:41:07;26.00;43.00
22290;DHT22;11313;50.116;8.424;2024-02-14T07:43:33;26.00;43.00
22290;DHT22;11313;50.116;8.424;2024-02-14T07:45:59;26.00;43.00
22290;DHT22;11313;50.116;8.424;2024-02-14T07:48:24;26.00;43.00
22290;DHT22;11313;50.116;8.424;2024-02-14T07:50:50;25.90;42.80
22290;DHT22;11313;50.116;8.424;2024-02-14T07:53:15;25.90;42.90
22290;DHT22;11313;50.116;8.424;2024-02-14T07:55:41;25.90;42.70
22290;DHT22;11313;50.116;8.424;2024-02-14T07:58:06;25.90;42.70
22290;DHT22;11313;50.116;8.424;2024-02-14T08:00:32;25.90;42.70
22290;DHT22;11313;50.116;8.424;2024-02-14T08:02:58;25.90;42.70
22290;DHT22;11313;50.116;8.424;2024-02-14T08:05:23;25.90;42.70
22290;DHT22;11313;50.116;8.424;2024-02-14T08:07:49;25.90;42.60
22290;DHT22;11313;50.116;8.424;2024-02-14T08:10:15;25.90;42.60
22290;DHT22;11313;50.116;8.424;2024-02-14T08:12:40;25.90;42.60
22290;DHT22;11313;50.116;8.424;2024-02-14T08:15:07;26.00;42.70
22290;DHT22;11313;50.116;8.424;2024-02-14T08:17:33;25.90;42.60
22290;DHT22;11313;50.116;8.424;2024-02-14T08:19:59;25.90;42.60
22290;DHT22;11313;50.116;8.424;2024-02-14T08:22:24;25.90;42.40
22290;DHT22;11313;50.116;8.424;2024-02-14T08:24:52;25.90;42.50
22290;DHT22;11313;50.116;8.424;2024-02-14T08:27:17;25.90;42.40
22290;DHT22;11313;50.116;8.424;2024-02-14T08:29:43;25.90;42.40
22290;DHT22;11313;50.116;8.424;2024-02-14T08:32:08;25.90;42.70
22290;DHT22;11313;50.116;8.424;2024-02-14T08:34:33;25.90;42.40
22290;DHT22;11313;50.116;8.424;2024-02-14T08:36:59;25.90;42.40
22290;DHT22;11313;50.116;8.424;2024-02-14T08:39:25;25.80;42.30
22290;DHT22;11313;50.116;8.424;2024-02-14T08:41:51;25.90;42.20
22290;DHT22;11313;50.116;8.424;2024-02-14T08:44:18;25.90;42.20
22290;DHT22;11313;50.116;8.424;2024-02-14T08:46:43;25.90;42.10
22290;DHT22;11313;50.116;8.424;2024-02-14T08:49:10;25.90;42.00
22290;DHT22;11313;50.116;8.424;2024-02-14T08:51:35;25.90;42.00
22290;DHT22;11313;50.116;8.424;2024-02-14T08:54:02;25.90;42.00
22290;DHT22;11313;50.116;8.424;2024-02-14T08:56:31;25.90;42.00
22290;DHT22;11313;50.116;8.424;2024-02-14T08:59:01;25.90;42.00
22290;DHT22;11313;50.116;8.424;2024-02-14T09:01:28;25.90;42.00
22290;DHT22;11313;50.116;8.424;2024-02-14T09:03:54;25.90;41.90
22290;DHT22;11313;50.116;8.424;2024-02-14T09:06:19;25.90;41.90
22290;DHT22;11313;50.116;8.424;2024-02-14T09:08:45;25.90;41.90
22290;DHT22;11313;50.116;8.424;2024-02-14T09:11:10;25.90;41.90
22290;DHT22;11313;50.116;8.424;2024-02-14T09:13:37;25.90;41.90
22290;DHT22;11313;50.116;8.424;2024-02-14T09:16:03;25.90;41.80
22290;DHT22;11313;50.116;8.424;2024-02-14T09:18:31;25.90;41.80
22290;DHT22;11313;50.116;8.424;2024-02-14T09:20:57;25.90;41.80
22290;DHT22;11313;50.116;8.424;2024-02-14T09:23:23;25.90;41.80
22290;DHT22;11313;50.116;8.424;2024-02-14T09:25:49;25.90;41.80
22290;DHT22;11313;50.116;8.424;2024-02-14T09:28:18;25.90;41.80
22290;DHT22;11313;50.116;8.424;2024-02-14T09:30:44;25.90;41.80
22290;DHT22;11313;50.116;8.424;2024-02-14T09:33:09;25.90;41.80
22290;DHT22;11313;50.116;8.424;2024-02-14T09:35:35;25.90;41.80
22290;DHT22;11313;50.116;8.424;2024-02-14T09:38:03;25.90;41.80
22290;DHT22;11313;50.116;8.424;2024-02-14T09:40:28;25.90;41.80
22290;DHT22;11313;50.116;8.424;2024-02-14T09:42:55;26.00;41.70
22290;DHT22;11313;50.116;8.424;2024-02-14T09:45:25;25.90;41.70
22290;DHT22;11313;50.116;8.424;2024-02-14T09:47:52;25.90;41.60
22290;DHT22;11313;50.116;8.424;2024-02-14T09:50:19;25.90;41.60
22290;DHT22;11313;50.116;8.424;2024-02-14T09:52:47;25.90;41.60
22290;DHT22;11313;50.116;8.424;2024-02-14T09:55:14;26.00;41.60
22290;DHT22;11313;50.116;8.424;2024-02-14T09:57:41;25.90;41.50
22290;DHT22;11313;50.116;8.424;2024-02-14T10:00:12;25.90;41.50
22290;DHT22;11313;50.116;8.424;2024-02-14T10:02:41;25.90;41.60
22290;DHT22;11313;50.116;8.424;2024-02-14T10:05:07;25.90;41.50
22290;DHT22;11313;50.116;8.424;2024-02-14T10:07:43;25.90;41.50
22290;DHT22;11313;50.116;8.424;2024-02-14T10:10:09;26.00;41.50
22290;DHT22;11313;50.116;8.424;2024-02-14T10:12:35;25.90;41.50
22290;DHT22;11313;50.116;8.424;2024-02-14T10:15:01;25.90;41.50
22290;DHT22;11313;50.116;8.424;2024-02-14T10:17:30;25.90;41.50
22290;DHT22;11313;50.116;8.424;2024-02-14T10:19:58;25.90;41.40
22290;DHT22;11313;50.116;8.424;2024-02-14T10:22:24;25.90;41.40
22290;DHT22;11313;50.116;8.424;2024-02-14T10:24:51;25.90;41.50
22290;DHT22;11313;50.116;8.424;2024-02-14T10:27:17;25.90;41.50
22290;DHT22;11313;50.116;8.424;2024-02-14T10:29:42;25.90;41.50
22290;DHT22;11313;50.116;8.424;2024-02-14T10:32:09;25.90;41.40
22290;DHT22;11313;50.116;8.424;2024-02-14T10:34:36;25.90;41.50
22290;DHT22;11313;50.116;8.424;2024-02-14T10:37:03;25.90;41.50
22290;DHT22;11313;50.116;8.424;2024-02-14T10:39:32;25.90;41.50
22290;DHT22;11313;50.116;8.424;2024-02-14T10:42:00;25.80;41.50
22290;DHT22;11313;50.116;8.424;2024-02-14T10:44:27;25.80;41.50
22290;DHT22;11313;50.116;8.424;2024-02-14T10:46:53;25.80;41.60
22290;DHT22;11313;50.116;8.424;2024-02-14T10:49:20;25.80;41.50
22290;DHT22;11313;50.116;8.424;2024-02-14T10:51:47;25.80;41.50
22290;DHT22;11313;50.116;8.424;2024-02-14T10:54:14;25.80;41.50
22290;DHT22;11313;50.116;8.424;2024-02-14T10:56:42;25.80;41.50
22290;DHT22;11313;50.116;8.424;2024-02-14T10:59:13;25.80;41.50
22290;DHT22;11313;50.116;8.424;2024-02-14T11:01:41;25.80;41.50
22290;DHT22;11313;50.116;8.424;2024-02-14T11:04:07;25.80;41.50
22290;DHT22;11313;50.116;8.424;2024-02-14T11:06:47;25.80;41.50
22290;DHT22;11313;50.116;8.424;2024-02-14T11:09:13;25.70;41.50
22290;DHT22;11313;50.116;8.424;2024-02-14T11:11:58;25.70;41.50
22290;DHT22;11313;50.116;8.424;2024-02-14T11:14:23;25.70;41.50
22290;DHT22;11313;50.116;8.424;2024-02-14T11:16:52;25.70;41.50
22290;DHT22;11313;50.116;8.424;2024-02-14T11:19:17;25.70;41.40
22290;DHT22;11313;50.116;8.424;2024-02-14T11:21:46;25.70;41.20
22290;DHT22;11313;50.116;8.424;2024-02-14T11:24:13;25.70;41.20
22290;DHT22;11313;50.116;8.424;2024-02-14T11:26:48;25.70;41.30
22290;DHT22;11313;50.116;8.424;2024-02-14T11:29:19;25.60;41.30
22290;DHT22;11313;50.116;8.424;2024-02-14T11:31:45;25.60;41.30
22290;DHT22;11313;50.116;8.424;2024-02-14T11:34:12;25.60;41.30
22290;DHT22;11313;50.116;8.424;2024-02-14T11:36:38;25.60;41.20
22290;DHT22;11313;50.116;8.424;2024-02-14T11:39:04;25.60;41.20
22290;DHT22;11313;50.116;8.424;2024-02-14T11:41:32;25.60;41.20
22290;DHT22;11313;50.116;8.424;2024-02-14T11:44:04;25.60;41.10
22290;DHT22;11313;50.116;8.424;2024-02-14T11:46:34;25.60;41.00
22290;DHT22;11313;50.116;8.424;2024-02-14T11:49:01;25.60;41.10
22290;DHT22;11313;50.116;8.424;2024-02-14T11:51:28;25.60;40.90
22290;DHT22;11313;50.116;8.424;2024-02-14T11:53:54;25.60;41.00
22290;DHT22;11313;50.116;8.424;2024-02-14T11:56:21;25.60;40.90
22290;DHT22;11313;50.116;8.424;2024-02-14T11:58:47;25.60;40.90
22290;DHT22;11313;50.116;8.424;2024-02-14T12:01:17;25.60;40.90
22290;DHT22;11313;50.116;8.424;2024-02-14T12:03:43;25.60;40.90
22290;DHT22;11313;50.116;8.424;2024-02-14T12:06:10;25.60;40.90
22290;DHT22;11313;50.116;8.424;2024-02-14T12:08:36;25.60;40.80
22290;DHT22;11313;50.116;8.424;2024-02-14T12:11:03;25.70;40.80
22290;DHT22;11313;50.116;8.424;2024-02-14T12:13:30;25.60;40.70
22290;DHT22;11313;50.116;8.424;2024-02-14T12:15:57;25.70;40.70
22290;DHT22;11313;50.116;8.424;2024-02-14T12:18:23;25.60;40.70
22290;DHT22;11313;50.116;8.424;2024-02-14T12:20:49;25.70;40.70
22290;DHT22;11313;50.116;8.424;2024-02-14T12:23:19;25.70;40.70
22290;DHT22;11313;50.116;8.424;2024-02-14T12:25:46;25.60;40.70
22290;DHT22;11313;50.116;8.424;2024-02-14T12:28:19;25.70;40.60
22290;DHT22;11313;50.116;8.424;2024-02-14T12:30:46;25.70;40.60
22290;DHT22;11313;50.116;8.424;2024-02-14T12:33:13;25.70;41.30
22290;DHT22;11313;50.116;8.424;2024-02-14T12:35:46;25.70;40.70
22290;DHT22;11313;50.116;8.424;2024-02-14T12:38:13;25.70;40.70
22290;DHT22;11313;50.116;8.424;2024-02-14T12:40:40;25.70;40.60
22290;DHT22;11313;50.116;8.424;2024-02-14T12:43:09;25.70;40.70
22290;DHT22;11313;50.116;8.424;2024-02-14T12:45:39;25.70;40.60
22290;DHT22;11313;50.116;8.424;2024-02-14T12:48:06;25.70;40.60
22290;DHT22;11313;50.116;8.424;2024-02-14T12:50:33;25.70;40.60
22290;DHT22;11313;50.116;8.424;2024-02-14T12:53:03;25.70;40.70
22290;DHT22;11313;50.116;8.424;2024-02-14T12:55:28;25.70;40.70
22290;DHT22;11313;50.116;8.424;2024-02-14T12:57:57;25.70;40.70
22290;DHT22;11313;50.116;8.424;2024-02-14T13:00:23;25.70;40.70
22290;DHT22;11313;50.116;8.424;2024-02-14T13:02:49;25.70;40.70
22290;DHT22;11313;50.116;8.424;2024-02-14T13:05:15;25.70;41.40
22290;DHT22;11313;50.116;8.424;2024-02-14T13:07:41;25.70;40.70
22290;DHT22;11313;50.116;8.424;2024-02-14T13:10:07;25.70;40.80
22290;DHT22;11313;50.116;8.424;2024-02-14T13:12:36;25.70;40.80
22290;DHT22;11313;50.116;8.424;2024-02-14T13:15:02;25.70;40.80
22290;DHT22;11313;50.116;8.424;2024-02-14T13:17:28;25.70;40.80
22290;DHT22;11313;50.116;8.424;2024-02-14T13:19:54;25.70;40.80
22290;DHT22;11313;50.116;8.424;2024-02-14T13:22:20;25.60;40.70
22290;DHT22;11313;50.116;8.424;2024-02-14T13:24:45;25.70;40.80
22290;DHT22;11313;50.116;8.424;2024-02-14T13:27:11;25.70;40.80
22290;DHT22;11313;50.116;8.424;2024-02-14T13:29:36;25.60;40.80
22290;DHT22;11313;50.116;8.424;2024-02-14T13:32:02;25.60;40.80
22290;DHT22;11313;50.116;8.424;2024-02-14T13:34:28;25.60;40.80
22290;DHT22;11313;50.116;8.424;2024-02-14T13:36:54;25.60;40.80
22290;DHT22;11313;50.116;8.424;2024-02-14T13:39:22;25.60;40.90
22290;DHT22;11313;50.116;8.424;2024-02-14T13:41:47;25.60;40.90
22290;DHT22;11313;50.116;8.424;2024-02-14T13:44:13;25.60;40.90
22290;DHT22;11313;50.116;8.424;2024-02-14T13:46:40;25.60;40.90
22290;DHT22;11313;50.116;8.424;2024-02-14T13:49:08;25.60;41.00
22290;DHT22;11313;50.116;8.424;2024-02-14T13:51:35;25.60;40.90
22290;DHT22;11313;50.116;8.424;2024-02-14T13:54:01;25.60;40.90
22290;DHT22;11313;50.116;8.424;2024-02-14T13:56:27;25.60;41.00
22290;DHT22;11313;50.116;8.424;2024-02-14T13:58:52;25.60;41.00
22290;DHT22;11313;50.116;8.424;2024-02-14T14:01:18;25.60;41.00
22290;DHT22;11313;50.116;8.424;2024-02-14T14:03:44;25.60;41.00
22290;DHT22;11313;50.116;8.424;2024-02-14T14:06:09;25.60;41.00
22290;DHT22;11313;50.116;8.424;2024-02-14T14:08:35;25.60;41.00
22290;DHT22;11313;50.116;8.424;2024-02-14T14:11:02;25.60;41.00
22290;DHT22;11313;50.116;8.424;2024-02-14T14:13:28;25.70;41.10
22290;DHT22;11313;50.116;8.424;2024-02-14T14:15:56;25.70;41.00
22290;DHT22;11313;50.116;8.424;2024-02-14T14:18:22;25.70;41.00
22290;DHT22;11313;50.116;8.424;2024-02-14T14:20:49;25.70;41.00
22290;DHT22;11313;50.116;8.424;2024-02-14T14:23:14;25.70;41.00
22290;DHT22;11313;50.116;8.424;2024-02-14T14:25:40;25.70;41.00
22290;DHT22;11313;50.116;8.424;2024-02-14T14:28:05;25.70;40.90
22290;DHT22;11313;50.116;8.424;2024-02-14T14:30:31;25.70;40.90
22290;DHT22;11313;50.116;8.424;2024-02-14T14:32:56;25.70;40.90
22290;DHT22;11313;50.116;8.424;2024-02-14T14:35:22;25.70;40.90
22290;DHT22;11313;50.116;8.424;2024-02-14T14:37:47;25.70;40.90
22290;DHT22;11313;50.116;8.424;2024-02-14T14:40:13;25.70;41.00
22290;DHT22;11313;50.116;8.424;2024-02-14T14:42:39;25.70;40.90
22290;DHT22;11313;50.116;8.424;2024-02-14T14:45:05;25.70;40.80
22290;DHT22;11313;50.116;8.424;2024-02-14T14:47:30;25.80;40.90
22290;DHT22;11313;50.116;8.424;2024-02-14T14:49:57;25.80;40.80
22290;DHT22;11313;50.116;8.424;2024-02-14T14:52:22;25.80;40.80
22290;DHT22;11313;50.116;8.424;2024-02-14T14:54:47;25.70;40.90
22290;DHT22;11313;50.116;8.424;2024-02-14T14:57:13;25.80;40.90
22290;DHT22;11313;50.116;8.424;2024-02-14T14:59:40;25.80;40.90
22290;DHT22;11313;50.116;8.424;2024-02-14T15:02:06;25.70;40.80
22290;DHT22;11313;50.116;8.424;2024-02-14T15:04:32;25.70;40.90
22290;DHT22;11313;50.116;8.424;2024-02-14T15:06:57;25.70;40.90
22290;DHT22;11313;50.116;8.424;2024-02-14T15:09:23;25.70;40.90
22290;DHT22;11313;50.116;8.424;2024-02-14T15:11:48;25.70;41.00
22290;DHT22;11313;50.116;8.424;2024-02-14T15:14:14;25.70;41.00
22290;DHT22;11313;50.116;8.424;2024-02-14T15:16:39;25.70;41.00
22290;DHT22;11313;50.116;8.424;2024-02-14T15:19:05;25.70;41.00
22290;DHT22;11313;50.116;8.424;2024-02-14T15:21:32;25.70;40.90
22290;DHT22;11313;50.116;8.424;2024-02-14T15:23:57;25.70;41.00